Data for 07/27/2015

Time Sea-Level Adjusted Pressure Absolute Pressure Temperature Relative Humidity Dew Point   
(mb) (inHg) (mb) (inHg) (C) (F) (%) (C) (F)
00:05 1015 29.97 844 24.92 16.2 61.2 56 7.5 45.4
00:10 1015 29.97 844 24.92 16.3 61.4 56 7.6 45.7
00:15 1015 29.97 844 24.92 16.3 61.3 57 7.9 46.2
00:20 1015 29.97 844 24.92 16.2 61.1 57 7.7 45.8
00:25 1015 29.97 844 24.92 16.2 61.2 56 7.6 45.7
00:30 1015 29.97 844 24.92 16.3 61.3 57 7.8 46
00:35 1015 29.97 844 24.92 16.4 61.5 56 7.6 45.6
00:40 1015 29.97 844 24.92 16.5 61.7 56 7.7 45.8
00:45 1015 29.97 844 24.92 16.6 61.9 55 7.7 45.9
00:50 1015 29.97 844 24.92 16.6 61.9 56 8 46.3
00:55 1015 29.97 844 24.92 16.3 61.4 58 8 46.5
01:00 1015 29.97 844 24.92 16.1 61 58 7.9 46.2
01:05 1015 29.97 844 24.92 16.2 61.1 57 7.8 46.1
01:10 1015 29.97 844 24.92 16.2 61.1 58 8 46.3
01:15 1016 30 845 24.95 16.1 60.9 59 8.3 46.9
01:20 1016 30 845 24.95 15.9 60.7 61 8.5 47.2
01:25 1016 30 845 24.95 15.9 60.7 61 8.6 47.4
01:30 1016 30 845 24.95 15.8 60.5 62 8.8 47.8
01:35 1016 30 845 24.95 15.5 59.8 66 9.2 48.6
01:40 1016 30 845 24.95 15.2 59.3 72 10.2 50.4
01:45 1016 30 845 24.95 14.5 58.2 73 9.9 49.8
01:50 1016 30 845 24.95 14.2 57.6 77 10.2 50.4
01:55 1016 30 845 24.95 13.8 56.8 78 10.1 50.2
02:00 1016 30 845 24.95 13.8 56.9 76 9.6 49.3
02:05 1015 29.97 845 24.95 14.3 57.7 71 9.1 48.5
02:10 1015 29.97 844 24.92 14.5 58.1 67 8.6 47.4
02:15 1015 29.97 845 24.95 14.9 58.8 66 8.7 47.7
02:20 1015 29.97 845 24.95 15.1 59.1 67 9 48.2
02:25 1015 29.97 844 24.92 14.8 58.6 69 9.3 48.8
02:30 1014 29.94 843 24.89 14.5 58 68 8.7 47.6
02:35 1014 29.94 843 24.89 14.8 58.6 65 8.3 46.9
02:40 1014 29.94 843 24.89 15 58.9 67 8.9 48
02:45 1014 29.94 843 24.89 14.7 58.5 72 9.8 49.6
02:50 1014 29.94 843 24.89 14.3 57.7 72 9.3 48.8
02:55 1014 29.94 844 24.92 14.3 57.8 69 8.9 47.9
03:00 1015 29.97 844 24.92 14.6 58.3 66 8.5 47.3
03:05 1015 29.97 844 24.92 14.7 58.4 73 9.9 49.8
03:10 1015 29.97 844 24.92 14.2 57.5 75 9.9 49.8
03:15 1015 29.97 844 24.92 13.9 57 77 9.9 49.9
03:20 1015 29.97 844 24.92 13.8 56.8 77 9.8 49.7
03:25 1015 29.97 845 24.95 13.7 56.7 78 10 49.9
03:30 1016 30 845 24.95 13.6 56.5 79 10 50
03:35 1016 30 845 24.95 13.5 56.3 75 9.2 48.6
03:40 1016 30 845 24.95 13.8 56.8 75 9.5 49
03:45 1016 30 845 24.95 13.8 56.8 74 9.3 48.7
03:50 1016 30 845 24.95 13.7 56.7 75 9.5 49
03:55 1015 29.97 844 24.92 13.5 56.3 76 9.4 48.9
04:00 1015 29.97 844 24.92 13.2 55.8 78 9.4 49
04:05 1015 29.97 844 24.92 12.9 55.2 80 9.6 49.3
04:10 1014 29.94 843 24.89 12.7 54.8 81 9.5 49
04:15 1014 29.94 843 24.89 12.6 54.7 81 9.5 49.1
04:20 1014 29.94 843 24.89 12.6 54.6 80 9.3 48.7
04:25 1014 29.94 843 24.89 12.8 55.1 80 9.4 48.9
04:30 1014 29.94 844 24.92 12.9 55.2 77 9.1 48.4
04:35 1015 29.97 844 24.92 13.1 55.5 78 9.4 48.9
04:40 1015 29.97 844 24.92 13 55.4 79 9.4 48.9
04:45 1015 29.97 844 24.92 12.9 55.1 79 9.4 49
04:50 1015 29.97 844 24.92 12.7 54.9 81 9.5 49.1
04:55 1015 29.97 844 24.92 12.4 54.4 82 9.4 49
05:00 1015 29.97 844 24.92 12.2 54 82 9.3 48.7
05:05 1015 29.97 844 24.92 12.2 53.9 82 9.1 48.4
05:10 1015 29.97 844 24.92 12.2 53.9 82 9.1 48.5
05:15 1015 29.97 844 24.92 12.2 54 81 9.2 48.5
05:20 1015 29.97 844 24.92 12.3 54.1 81 9.1 48.4
05:25 1015 29.97 844 24.92 12.3 54.1 81 9.1 48.4
05:30 1015 29.97 844 24.92 12.3 54.1 80 9 48.2
05:35 1015 29.97 844 24.92 12.1 53.9 81 9.1 48.3
05:40 1015 29.97 844 24.92 12 53.6 82 9.1 48.4
05:45 1015 29.97 844 24.92 12 53.5 82 9.1 48.4
05:50 1015 29.97 844 24.92 12 53.6 82 9.1 48.3
05:55 1015 29.97 844 24.92 12.2 53.9 81 9 48.2
06:00 1015 29.97 844 24.92 12.2 54 81 9.1 48.4
06:05 1015 29.97 844 24.92 12.1 53.7 81 9 48.2
06:10 1015 29.97 844 24.92 12.2 54 81 9.1 48.4
06:15 1015 29.97 844 24.92 12.4 54.4 81 9.2 48.6
06:20 1015 29.97 844 24.92 12.6 54.7 81 9.4 48.9
06:25 1015 29.97 844 24.92 12.6 54.7 80 9.2 48.6
06:30 1015 29.97 844 24.92 13 55.4 77 9.1 48.4
06:35 1015 29.97 844 24.92 13.6 56.4 75 9.4 48.8
06:40 1015 29.97 844 24.92 13.4 56.1 78 9.6 49.2
06:45 1014 29.94 844 24.92 13.9 56.9 75 9.6 49.2
06:50 1014 29.94 844 24.92 14.4 57.9 74 9.8 49.7
06:55 1015 29.97 844 24.92 14.6 58.3 74 10.1 50.2
07:00 1015 29.97 844 24.92 15 59 71 9.9 49.9
07:05 1015 29.97 844 24.92 15.5 59.8 73 10.6 51.1
07:10 1015 29.97 844 24.92 15.1 59.3 73 10.5 50.9
07:15 1015 29.97 844 24.92 14.6 58.4 75 10.3 50.5
07:20 1015 29.97 844 24.92 14.5 58.1 75 10.1 50.1
07:25 1015 29.97 844 24.92 14.4 57.9 75 10.1 50.2
07:30 1015 29.97 844 24.92 14 57.1 77 10.1 50.2
07:35 1015 29.97 844 24.92 13.5 56.3 79 9.9 49.8
07:40 1015 29.97 845 24.95 12.9 55.2 81 9.7 49.4
07:45 1015 29.97 844 24.92 12.8 55 81 9.7 49.4
07:50 1015 29.97 844 24.92 12.8 55 81 9.7 49.4
07:55 1015 29.97 844 24.92 13.1 55.5 80 9.8 49.6
08:00 1015 29.97 844 24.92 13.3 56 79 9.8 49.6
08:05 1015 29.97 844 24.92 13.4 56.2 78 9.7 49.5
08:10 1015 29.97 844 24.92 13.6 56.4 78 9.8 49.6
08:15 1015 29.97 844 24.92 13.7 56.7 77 9.8 49.7
08:20 1015 29.97 844 24.92 14.1 57.4 75 9.8 49.6
08:25 1015 29.97 844 24.92 14.2 57.5 75 9.9 49.8
08:30 1015 29.97 844 24.92 13.9 57.1 74 9.5 49
08:35 1015 29.97 844 24.92 14.3 57.8 72 9.5 49.1
08:40 1015 29.97 844 24.92 14.8 58.6 72 9.8 49.7
08:45 1015 29.97 844 24.92 14 57.2 74 9.6 49.3
08:50 1015 29.97 844 24.92 13.8 56.8 78 10 50
08:55 1015 29.97 844 24.92 13.6 56.5 76 9.5 49.2
09:00 1015 29.97 844 24.92 13.3 55.9 78 9.6 49.2
09:05 1015 29.97 844 24.92 13.4 56.1 77 9.4 48.9
09:10 1015 29.97 844 24.92 13.4 56 78 9.7 49.5
09:15 1016 30 845 24.95 13.3 55.9 80 9.9 49.7
09:20 1016 30 845 24.95 12.5 54.5 85 10.1 50.2
09:25 1015 29.97 845 24.95 11.2 52.2 88 9.3 48.7
09:30 1015 29.97 844 24.92 10.8 51.4 89 9.1 48.4
09:35 1015 29.97 844 24.92 11.1 52 87 9.1 48.4
09:40 1015 29.97 844 24.92 11.6 52.8 85 9.1 48.4
09:45 1015 29.97 844 24.92 12 53.5 84 9.4 48.9
09:50 1015 29.97 844 24.92 12.1 53.7 83 9.3 48.7
09:55 1015 29.97 844 24.92 12.2 53.9 83 9.4 48.9
10:00 1015 29.97 844 24.92 12.1 53.8 84 9.5 49
10:05 1015 29.97 844 24.92 11.9 53.5 85 9.5 49
10:10 1015 29.97 844 24.92 11.8 53.2 86 9.5 49.2
10:15 1015 29.97 844 24.92 11.5 52.6 85 9.1 48.4
10:20 1015 29.97 844 24.92 11.2 52.1 87 9 48.3
10:25 1016 30 845 24.95 10.6 51.1 84 8 46.4
10:30 1016 30 845 24.95 9.3 48.8 86 7.2 44.9
10:35 1016 30 845 24.95 8.4 47.2 90 6.9 44.4
10:40 1016 30 845 24.95 8.7 47.6 90 7.2 44.9
10:45 1016 30 845 24.95 9 48.2 90 7.4 45.3
10:50 1016 30 845 24.95 9.3 48.8 90 7.8 46
10:55 1016 30 845 24.95 9.5 49.1 90 8 46.4
11:00 1016 30 846 24.98 9.6 49.3 90 8.1 46.6
11:05 1017 30.03 846 24.98 9.6 49.3 90 8.1 46.6
11:10 1017 30.03 846 24.98 9.7 49.4 90 8.1 46.5
11:15 1017 30.03 846 24.98 9.7 49.5 90 8.2 46.7
11:20 1017 30.03 846 24.98 9.7 49.5 90 8.2 46.7
11:25 1017 30.03 846 24.98 9.7 49.4 90 8.2 46.7
11:30 1017 30.03 846 24.98 9.7 49.5 90 8.2 46.8
11:35 1017 30.03 847 25.01 9.7 49.5 91 8.3 46.9
11:40 1018 30.06 847 25.01 9.7 49.4 90 8.1 46.6
11:45 1018 30.06 847 25.01 9.6 49.2 90 8 46.4
11:50 1017 30.03 846 24.98 9.6 49.3 90 8 46.5
11:55 1017 30.03 846 24.98 9.6 49.4 90 8.1 46.7
12:00 1017 30.03 847 25.01 9.7 49.4 90 8.1 46.6
12:05 1018 30.06 847 25.01 9.6 49.4 90 8.2 46.7
12:10 1017 30.03 847 25.01 9.7 49.5 91 8.3 47
12:15 1017 30.03 847 25.01 9.6 49.2 90 8 46.3
12:20 1017 30.03 847 25.01 9.4 48.9 90 7.8 46.1
12:25 1018 30.06 847 25.01 9.3 48.7 89 7.5 45.6
12:30 1018 30.06 847 25.01 9.2 48.5 89 7.4 45.3
12:35 1018 30.06 847 25.01 9.2 48.5 89 7.4 45.4
12:40 1018 30.06 847 25.01 9.2 48.5 89 7.4 45.3
12:45 1018 30.06 847 25.01 9.2 48.5 89 7.5 45.5
12:50 1018 30.06 847 25.01 9.2 48.5 89 7.5 45.5
12:55 1018 30.06 847 25.01 9.2 48.6 88 7.4 45.4
13:00 1018 30.06 847 25.01 9.3 48.7 89 7.5 45.6
13:05 1018 30.06 847 25.01 9.6 49.2 87 7.5 45.4
13:10 1018 30.06 847 25.01 9.6 49.3 86 7.4 45.3
13:15 1018 30.06 847 25.01 9.7 49.4 84 7.1 44.8
13:20 1018 30.06 847 25.01 9.7 49.5 86 7.5 45.5
13:25 1018 30.06 847 25.01 9.8 49.6 84 7.2 45
13:30 1018 30.06 847 25.01 9.8 49.7 82 6.9 44.4
13:35 1018 30.06 847 25.01 9.8 49.7 83 7 44.6
13:40 1018 30.06 847 25.01 9.8 49.6 81 6.7 44.1
13:45 1018 30.06 847 25.01 9.8 49.7 81 6.7 44
13:50 1018 30.06 847 25.01 9.8 49.6 78 6.1 42.9
13:55 1018 30.06 847 25.01 9.7 49.4 79 6.3 43.3
14:00 1018 30.06 847 25.01 9.6 49.3 79 6.2 43.2
14:05 1017 30.03 847 25.01 9.6 49.3 80 6.3 43.3
14:10 1017 30.03 847 25.01 9.8 49.6 80 6.5 43.7
14:15 1017 30.03 847 25.01 9.8 49.7 79 6.4 43.5
14:20 1017 30.03 846 24.98 9.8 49.6 79 6.4 43.5
14:25 1017 30.03 846 24.98 9.9 49.8 79 6.4 43.6
14:30 1017 30.03 846 24.98 10.1 50.2 78 6.4 43.6
14:35 1017 30.03 846 24.98 10.1 50.2 79 6.6 43.9
14:40 1017 30.03 846 24.98 10.3 50.5 79 6.8 44.2
14:45 1017 30.03 846 24.98 10.4 50.7 82 7.4 45.4
14:50 1017 30.03 846 24.98 10.9 51.5 81 7.7 45.9
14:55 1017 30.03 846 24.98 11.1 52 77 7.2 44.9
15:00 1017 30.03 846 24.98 11.2 52.2 81 8 46.4
15:05 1017 30.03 846 24.98 11.4 52.5 76 7.4 45.3
15:10 1017 30.03 847 25.01 11.3 52.3 78 7.7 45.8
15:15 1017 30.03 847 25.01 11.1 52.1 77 7.2 45
15:20 1017 30.03 846 24.98 11 51.8 77 7.2 45
15:25 1017 30.03 847 25.01 11.1 51.9 78 7.4 45.3
15:30 1017 30.03 847 25.01 11.2 52.1 79 7.6 45.7
15:35 1017 30.03 847 25.01 11.1 52 76 7 44.6
15:40 1017 30.03 847 25.01 11 51.7 78 7.3 45.2
15:45 1018 30.06 847 25.01 10.9 51.6 79 7.5 45.4
15:50 1018 30.06 847 25.01 10.8 51.5 79 7.3 45.2
15:55 1018 30.06 847 25.01 10.7 51.3 82 7.7 45.9
16:00 1018 30.06 847 25.01 10.6 51.1 81 7.5 45.5
16:05 1018 30.06 847 25.01 10.6 51.1 82 7.7 45.9
16:10 1018 30.06 847 25.01 10.4 50.8 85 8 46.5
16:15 1018 30.06 847 25.01 10.1 50.2 86 7.9 46.3
16:20 1018 30.06 847 25.01 9.9 49.8 86 7.6 45.8
16:25 1018 30.06 847 25.01 9.7 49.4 86 7.5 45.5
16:30 1018 30.06 847 25.01 9.5 49 84 7 44.5
16:35 1018 30.06 847 25.01 9.2 48.5 86 6.9 44.4
16:40 1018 30.06 847 25.01 9.1 48.3 85 6.7 44.1
16:45 1018 30.06 847 25.01 9 48.2 85 6.7 44
16:50 1018 30.06 848 25.04 9 48.2 84 6.4 43.6
16:55 1018 30.06 848 25.04 8.9 48 85 6.5 43.7
17:00 1019 30.09 848 25.04 8.9 47.9 84 6.3 43.3
17:05 1019 30.09 848 25.04 8.9 48 85 6.5 43.7
17:10 1019 30.09 848 25.04 8.9 48 85 6.6 43.8
17:15 1019 30.09 848 25.04 8.9 47.9 87 6.8 44.2
17:20 1019 30.09 848 25.04 8.8 47.9 86 6.7 44
17:25 1019 30.09 848 25.04 8.8 47.9 87 6.8 44.3
17:30 1019 30.09 848 25.04 8.9 48 87 6.8 44.2
17:35 1019 30.09 848 25.04 9 48.1 87 7 44.5
17:40 1019 30.09 848 25.04 9 48.1 88 7 44.7
17:45 1019 30.09 848 25.04 9 48.2 88 7.2 45
17:50 1019 30.09 848 25.04 9 48.2 88 7.1 44.8
17:55 1019 30.09 848 25.04 8.9 48.1 86 6.7 44
18:00 1019 30.09 848 25.04 8.9 47.9 83 6.1 43
18:05 1019 30.09 848 25.04 8.8 47.8 84 6.2 43.1
18:10 1019 30.09 848 25.04 8.7 47.6 85 6.3 43.3
18:15 1019 30.09 848 25.04 8.7 47.6 87 6.6 43.9
18:20 1019 30.09 848 25.04 8.7 47.6 87 6.6 43.9
18:25 1019 30.09 848 25.04 8.7 47.6 86 6.5 43.7
18:30 1019 30.09 848 25.04 8.7 47.7 87 6.7 44.1
18:35 1019 30.09 848 25.04 8.7 47.6 87 6.6 43.9
18:40 1019 30.09 848 25.04 8.7 47.7 86 6.5 43.8
18:45 1019 30.09 848 25.04 8.8 47.8 86 6.5 43.7
18:50 1019 30.09 849 25.07 8.8 47.9 85 6.4 43.5
18:55 1019 30.09 849 25.07 8.9 48 85 6.6 43.8
19:00 1020 30.12 849 25.07 8.8 47.8 84 6.3 43.3
19:05 1020 30.12 849 25.07 8.7 47.7 84 6.2 43.1
19:10 1020 30.12 849 25.07 8.7 47.7 83 5.9 42.7
19:15 1020 30.12 849 25.07 8.7 47.7 84 6.1 43
19:20 1020 30.12 849 25.07 8.7 47.6 83 5.9 42.7
19:25 1020 30.12 849 25.07 8.7 47.6 82 5.8 42.4
19:30 1020 30.12 849 25.07 8.7 47.6 83 6 42.9
19:35 1020 30.12 849 25.07 8.6 47.6 84 6.1 42.9
19:40 1020 30.12 849 25.07 8.6 47.4 84 6 42.9
19:45 1020 30.12 849 25.07 8.5 47.3 82 5.7 42.2
19:50 1020 30.12 849 25.07 8.5 47.2 82 5.6 42.1
19:55 1020 30.12 849 25.07 8.4 47.1 83 5.7 42.3
20:00 1020 30.12 849 25.07 8.3 47 84 5.8 42.4
20:05 1020 30.12 849 25.07 8.4 47 83 5.7 42.3
20:10 1020 30.12 849 25.07 8.5 47.2 83 5.8 42.4
20:15 1020 30.12 849 25.07 8.4 47.1 83 5.6 42.1
20:20 1020 30.12 849 25.07 8.4 47.1 82 5.5 41.9
20:25 1020 30.12 850 25.1 8.4 47.1 82 5.5 41.9
20:30 1020 30.12 850 25.1 8.4 47.1 82 5.5 41.8
20:35 1021 30.15 850 25.1 8.4 47.2 82 5.6 42.1
20:40 1021 30.15 850 25.1 8.5 47.3 81 5.5 41.9
20:45 1021 30.15 850 25.1 8.6 47.4 81 5.6 42
20:50 1021 30.15 850 25.1 8.6 47.4 81 5.5 42
20:55 1021 30.15 850 25.1 8.5 47.3 82 5.6 42.1
21:00 1021 30.15 850 25.1 8.5 47.4 82 5.6 42.1
21:05 1021 30.15 850 25.1 8.6 47.4 82 5.7 42.3
21:10 1021 30.15 850 25.1 8.6 47.5 83 5.8 42.5
21:15 1021 30.15 850 25.1 8.7 47.6 84 6.1 43
21:20 1021 30.15 851 25.13 8.6 47.4 82 5.7 42.3
21:25 1021 30.15 851 25.13 8.2 46.7 84 5.7 42.2
21:30 1022 30.18 851 25.13 8.1 46.5 87 6.1 42.9
21:35 1022 30.18 851 25.13 8 46.4 88 6.1 43
21:40 1022 30.18 851 25.13 7.9 46.3 85 5.6 42.2
21:45 1022 30.18 851 25.13 8 46.4 88 6.2 43.1
21:50 1022 30.18 851 25.13 7.9 46.2 88 6.1 42.9
21:55 1022 30.18 851 25.13 8 46.4 84 5.5 41.9
22:00 1022 30.18 851 25.13 8 46.5 82 5.2 41.3
22:05 1022 30.18 851 25.13 7.9 46.2 83 5.1 41.2
22:10 1022 30.18 851 25.13 7.9 46.1 81 4.8 40.6
22:15 1022 30.18 851 25.13 8 46.4 78 4.4 39.8
22:20 1022 30.18 851 25.13 8.1 46.5 78 4.5 40
22:25 1022 30.18 851 25.13 8 46.5 78 4.4 39.9
22:30 1022 30.18 851 25.13 8 46.3 75 3.9 39
22:35 1022 30.18 851 25.13 7.8 46 74 3.6 38.4
22:40 1022 30.18 851 25.13 7.8 46 74 3.3 38
22:45 1022 30.18 851 25.13 7.7 45.8 76 3.7 38.6
22:50 1022 30.18 851 25.13 7.6 45.6 75 3.5 38.2
22:55 1022 30.18 851 25.13 7.6 45.6 74 3.3 37.9
23:00 1022 30.18 851 25.13 7.6 45.7 73 3.1 37.6
23:05 1022 30.18 851 25.13 7.6 45.6 73 3.1 37.5
23:10 1022 30.18 851 25.13 7.6 45.6 72 2.9 37.3
23:15 1022 30.18 851 25.13 7.6 45.7 73 3 37.4
23:20 1022 30.18 851 25.13 7.7 45.9 72 3 37.4
23:25 1022 30.18 851 25.13 7.8 46.1 71 3 37.3
23:30 1022 30.18 851 25.13 7.9 46.2 71 2.9 37.2
23:35 1022 30.18 851 25.13 8 46.3 71 3 37.4
23:40 1022 30.18 851 25.13 8 46.5 70 2.9 37.3
23:45 1022 30.18 851 25.13 8.2 46.8 68 2.8 37
23:50 1022 30.18 851 25.13 8.3 46.9 70 3.2 37.7
23:55 1022 30.18 851 25.13 8.2 46.8 70 3.2 37.7
24:00 1022 30.18 851 25.13 8.3 46.9 70 3.2 37.7